createdAt,value
2022-08-20T00:00:29.895Z,23.63
2022-08-20T00:02:59.437Z,27.33
2022-08-20T00:05:33.414Z,25.27
2022-08-20T00:08:01.834Z,23.15
2022-08-20T00:10:29.321Z,25.05
2022-08-20T00:12:56.475Z,24.30
2022-08-20T00:15:28.398Z,23.75
2022-08-20T00:17:56.214Z,25.50
2022-08-20T00:20:25.112Z,25.60
2022-08-20T00:22:51.932Z,22.33
2022-08-20T00:25:19.288Z,28.08
2022-08-20T00:27:46.021Z,25.30
2022-08-20T00:30:13.645Z,25.23
2022-08-20T00:32:50.073Z,25.65
2022-08-20T00:35:18.898Z,23.48
2022-08-20T00:37:45.719Z,29.63
2022-08-20T00:40:22.298Z,23.67
2022-08-20T00:42:53.735Z,24.73
2022-08-20T00:45:21.287Z,26.42
2022-08-20T00:47:51.409Z,25.90
2022-08-20T00:50:22.297Z,25.92
2022-08-20T00:52:51.177Z,26.85
2022-08-20T00:55:21.785Z,24.77
2022-08-20T00:58:01.191Z,31.10
2022-08-20T01:00:32.374Z,25.02
2022-08-20T01:03:00.646Z,23.80
2022-08-20T01:05:29.567Z,23.33
2022-08-20T01:07:57.721Z,29.73
2022-08-20T01:10:28.155Z,25.38
2022-08-20T01:12:59.516Z,28.38
2022-08-20T01:15:31.663Z,24.55
2022-08-20T01:17:59.596Z,25.67
2022-08-20T01:20:32.429Z,23.30
2022-08-20T01:23:27.574Z,24.92
2022-08-20T01:26:00.194Z,23.50
2022-08-20T01:28:32.440Z,25.15
2022-08-20T01:30:59.297Z,27.45
2022-08-20T01:33:26.220Z,26.27
2022-08-20T01:35:53.716Z,23.98
2022-08-20T01:38:20.800Z,31.42
2022-08-20T01:40:52.809Z,26.67
2022-08-20T01:43:19.778Z,31.40
2022-08-20T01:45:49.306Z,25.83
2022-08-20T01:48:18.039Z,24.90
2022-08-20T01:50:54.035Z,26.88
2022-08-20T01:53:33.668Z,23.88
2022-08-20T01:56:02.918Z,24.02
2022-08-20T01:58:30.017Z,26.35
2022-08-20T02:00:57.813Z,24.35
2022-08-20T02:03:24.583Z,26.65
2022-08-20T02:05:53.336Z,26.55
2022-08-20T02:08:21.695Z,25.83
2022-08-20T02:10:49.007Z,28.48
2022-08-20T02:13:16.321Z,24.85
2022-08-20T02:15:43.366Z,25.38
2022-08-20T02:18:15.406Z,24.10
2022-08-20T02:20:43.601Z,24.50
2022-08-20T02:23:11.876Z,25.20
2022-08-20T02:25:40.256Z,24.63
2022-08-20T02:28:13.941Z,23.65
2022-08-20T02:30:44.991Z,22.63
2022-08-20T02:33:13.317Z,26.35
2022-08-20T02:35:42.691Z,25.17
2022-08-20T02:38:10.619Z,23.52
2022-08-20T02:40:37.707Z,22.73
2022-08-20T02:43:04.688Z,23.67
2022-08-20T02:45:37.136Z,22.90
2022-08-20T02:48:04.284Z,26.77
2022-08-20T02:50:31.431Z,24.40
2022-08-20T02:52:58.121Z,26.73
2022-08-20T02:55:27.098Z,24.75
2022-08-20T02:57:58.626Z,26.02
2022-08-20T03:00:27.300Z,27.75
2022-08-20T03:02:54.030Z,26.65
2022-08-20T03:05:20.729Z,27.65
2022-08-20T03:07:50.349Z,25.88
2022-08-20T03:10:17.372Z,26.83
2022-08-20T03:12:44.072Z,25.85
2022-08-20T03:15:17.732Z,25.98
2022-08-20T03:17:45.242Z,25.60
2022-08-20T03:20:13.161Z,28.88
2022-08-20T03:22:40.085Z,21.15
2022-08-20T03:25:07.468Z,25.38
2022-08-20T03:27:36.567Z,21.58
2022-08-20T03:30:06.488Z,20.58
2022-08-20T03:32:33.330Z,20.73
2022-08-20T03:35:00.027Z,22.25
2022-08-20T03:37:30.923Z,23.23
2022-08-20T03:39:58.094Z,20.15
2022-08-20T03:42:24.886Z,25.45
2022-08-20T03:44:58.958Z,19.48
2022-08-20T03:47:26.715Z,21.35
2022-08-20T03:49:58.651Z,19.10
2022-08-20T03:52:25.996Z,21.90
2022-08-20T03:54:52.685Z,22.15
2022-08-20T03:57:19.427Z,17.80
2022-08-20T03:59:46.136Z,18.15
2022-08-20T04:02:16.627Z,18.38
2022-08-20T04:04:43.497Z,23.33
2022-08-20T04:07:17.259Z,23.77
2022-08-20T04:09:43.988Z,15.63
2022-08-20T04:12:13.528Z,16.90
2022-08-20T04:14:40.323Z,17.20
2022-08-20T04:17:09.893Z,13.05
2022-08-20T04:19:37.298Z,14.88
2022-08-20T04:22:04.276Z,15.70
2022-08-20T04:24:32.472Z,12.18
2022-08-20T04:27:02.502Z,12.70
2022-08-20T04:29:32.128Z,14.95
2022-08-20T04:32:00.660Z,11.73
2022-08-20T04:34:29.600Z,13.35
2022-08-20T04:36:56.357Z,16.92
2022-08-20T04:39:23.594Z,12.80
2022-08-20T04:41:50.332Z,10.18
2022-08-20T04:44:17.115Z,11.43
2022-08-20T04:46:43.806Z,10.38
2022-08-20T04:49:10.666Z,12.35
2022-08-20T04:51:37.476Z,13.43
2022-08-20T04:54:04.600Z,11.27
2022-08-20T04:56:38.833Z,11.73
2022-08-20T04:59:06.077Z,11.70
2022-08-20T05:01:33.291Z,9.00
2022-08-20T05:04:00.266Z,13.45
2022-08-20T05:06:29.426Z,15.63
2022-08-20T05:08:57.874Z,12.35
2022-08-20T05:11:34.449Z,18.27
2022-08-20T05:14:05.181Z,15.40
2022-08-20T05:16:37.519Z,16.95
2022-08-20T05:19:04.668Z,14.73
2022-08-20T05:21:31.374Z,13.82
2022-08-20T05:23:58.078Z,15.35
2022-08-20T05:26:26.460Z,15.60
2022-08-20T05:28:58.759Z,17.55
2022-08-20T05:31:32.115Z,12.85
2022-08-20T05:34:11.546Z,14.52
2022-08-20T05:36:49.383Z,14.07
2022-08-20T05:39:20.479Z,13.82
2022-08-20T05:41:50.997Z,10.77
2022-08-20T05:44:18.678Z,10.75
2022-08-20T05:46:47.227Z,9.73
2022-08-20T05:49:20.335Z,9.30
2022-08-20T05:51:47.797Z,9.48
2022-08-20T05:54:14.627Z,9.60
2022-08-20T05:56:41.674Z,10.60
2022-08-20T05:59:10.078Z,7.50
2022-08-20T06:01:38.659Z,7.97
2022-08-20T06:04:24.205Z,10.30
2022-08-20T06:07:43.968Z,7.65
2022-08-20T06:10:11.361Z,10.55
2022-08-20T06:12:38.622Z,11.13
2022-08-20T06:15:58.439Z,9.43
2022-08-20T06:23:15.121Z,8.18
2022-08-20T06:25:43.822Z,9.27
2022-08-20T06:28:10.715Z,13.15
2022-08-20T06:30:38.678Z,8.50
2022-08-20T06:33:05.375Z,7.68
2022-08-20T06:35:34.116Z,7.47
2022-08-20T06:38:01.944Z,10.38
2022-08-20T06:40:28.882Z,7.93
2022-08-20T06:42:56.978Z,7.57
2022-08-20T06:45:26.543Z,8.15
2022-08-20T06:51:59.071Z,10.18
2022-08-20T06:55:41.714Z,7.70
2022-08-20T06:58:36.294Z,7.55
2022-08-20T07:02:00.323Z,12.07
2022-08-20T07:04:29.201Z,9.38
2022-08-20T07:06:57.833Z,11.55
2022-08-20T07:09:26.242Z,8.75
2022-08-20T07:11:57.651Z,7.03
2022-08-20T07:14:25.495Z,7.88
2022-08-20T07:16:52.203Z,7.45
2022-08-20T07:19:19.916Z,7.50
2022-08-20T07:21:50.679Z,11.40
2022-08-20T07:24:19.600Z,7.13
2022-08-20T07:26:46.360Z,6.32
2022-08-20T07:29:14.052Z,7.60
2022-08-20T07:32:00.406Z,6.30
2022-08-20T07:34:28.251Z,8.23
2022-08-20T07:36:55.081Z,7.35
2022-08-20T07:39:21.852Z,10.90
2022-08-20T07:42:02.994Z,10.27
2022-08-20T07:44:30.968Z,5.80
2022-08-20T07:47:01.087Z,7.43
2022-08-20T07:49:27.750Z,7.53
2022-08-20T07:51:54.459Z,8.20
2022-08-20T07:54:21.148Z,10.65
2022-08-20T07:56:48.289Z,6.88
2022-08-20T07:59:20.523Z,7.50
2022-08-20T08:01:47.190Z,6.28
2022-08-20T08:04:13.835Z,8.07
2022-08-20T08:06:42.319Z,6.50
2022-08-20T08:09:14.963Z,5.82
2022-08-20T08:14:23.513Z,7.47
2022-08-20T08:16:57.250Z,6.40
2022-08-20T08:19:25.827Z,8.18
2022-08-20T08:21:52.503Z,6.05
2022-08-20T08:24:25.358Z,7.75
2022-08-20T08:26:54.563Z,7.40
2022-08-20T08:29:21.277Z,6.50
2022-08-20T08:31:48.007Z,6.93
2022-08-20T08:34:14.918Z,7.63
2022-08-20T08:36:44.006Z,7.10
2022-08-20T08:39:12.712Z,6.63
2022-08-20T08:41:47.162Z,7.53
2022-08-20T08:44:50.775Z,8.23
2022-08-20T08:47:29.312Z,9.18
2022-08-20T08:49:56.832Z,8.30
2022-08-20T08:52:29.210Z,10.25
2022-08-20T08:54:59.410Z,8.32
2022-08-20T08:57:26.770Z,9.70
2022-08-20T09:00:04.020Z,8.75
2022-08-20T09:02:32.101Z,7.68
2022-08-20T09:05:00.792Z,8.88
2022-08-20T09:07:32.284Z,8.70
2022-08-20T09:10:00.159Z,25.38
2022-08-20T09:12:27.822Z,12.27
2022-08-20T09:14:54.717Z,8.95
2022-08-20T09:17:23.007Z,8.20
2022-08-20T09:19:52.241Z,7.88
2022-08-20T09:22:22.192Z,7.82
2022-08-20T09:24:49.775Z,10.43
2022-08-20T09:27:16.529Z,9.32
2022-08-20T09:29:43.499Z,9.52
2022-08-20T09:32:14.763Z,9.45
2022-08-20T09:34:44.603Z,9.52
2022-08-20T09:37:11.718Z,12.63
2022-08-20T09:39:38.994Z,10.00
2022-08-20T09:42:08.674Z,11.02
2022-08-20T09:44:35.364Z,8.35
2022-08-20T09:47:02.022Z,9.98
2022-08-20T09:49:28.750Z,7.93
2022-08-20T09:52:00.064Z,12.30
2022-08-20T09:54:30.004Z,9.65
2022-08-20T09:57:07.425Z,12.07
2022-08-20T09:59:35.970Z,8.32
2022-08-20T10:02:02.941Z,11.55
2022-08-20T10:04:29.855Z,9.43
2022-08-20T10:06:58.376Z,7.80
2022-08-20T10:09:25.113Z,11.38
2022-08-20T10:11:51.769Z,9.57
2022-08-20T10:14:18.486Z,8.35
2022-08-20T10:16:45.155Z,12.77
2022-08-20T10:19:11.906Z,11.70
2022-08-20T10:21:39.585Z,10.02
2022-08-20T10:24:06.344Z,10.38
2022-08-20T10:26:33.189Z,11.32
2022-08-20T10:28:59.938Z,12.32
2022-08-20T10:31:26.689Z,9.95
2022-08-20T10:33:54.471Z,19.00
2022-08-20T10:36:22.237Z,12.88
2022-08-20T10:38:54.457Z,15.23
2022-08-20T10:41:50.308Z,11.80
2022-08-20T10:44:42.782Z,10.75
2022-08-20T10:47:28.771Z,9.88
2022-08-20T10:50:00.597Z,10.15
2022-08-20T10:52:27.997Z,17.40
2022-08-20T10:54:55.379Z,12.27
2022-08-20T10:57:27.130Z,10.63
2022-08-20T10:59:56.954Z,11.77
2022-08-20T11:26:08.372Z,20.83
2022-08-20T11:28:35.069Z,23.85
2022-08-20T11:31:01.851Z,21.48
2022-08-20T11:33:28.812Z,19.42
2022-08-20T11:35:55.485Z,18.20
2022-08-20T11:43:11.022Z,20.08
2022-08-20T11:45:37.368Z,19.15
2022-08-20T11:48:09.496Z,19.52
2022-08-20T11:50:36.230Z,16.70
2022-08-20T11:53:03.900Z,19.50
2022-08-20T11:55:31.070Z,16.98
2022-08-20T11:58:01.116Z,18.70
2022-08-20T12:00:32.880Z,17.70
2022-08-20T12:03:04.939Z,14.90
2022-08-20T12:05:32.496Z,17.35
2022-08-20T12:08:02.342Z,18.25
2022-08-20T12:10:29.468Z,20.60
2022-08-20T12:12:56.681Z,23.70
2022-08-20T12:15:26.926Z,18.58
2022-08-20T12:17:54.620Z,16.15
2022-08-20T12:20:23.180Z,19.27
2022-08-20T12:22:50.127Z,15.90
2022-08-20T12:25:16.891Z,15.95
2022-08-20T12:27:43.714Z,19.40
2022-08-20T12:30:14.297Z,19.23
2022-08-20T12:32:43.285Z,19.48
2022-08-20T12:35:11.600Z,16.98
2022-08-20T12:37:40.721Z,21.33
2022-08-20T12:40:16.310Z,14.95
2022-08-20T12:42:43.004Z,16.02
2022-08-20T12:45:10.369Z,14.68
2022-08-20T12:47:39.745Z,15.48
2022-08-20T12:50:18.246Z,18.92
2022-08-20T12:52:45.415Z,16.88
2022-08-20T12:55:15.027Z,14.65
2022-08-20T12:57:45.347Z,20.08
2022-08-20T13:00:20.617Z,15.25
2022-08-20T13:02:48.877Z,15.95
2022-08-20T13:05:17.256Z,11.98
2022-08-20T13:07:44.735Z,12.23
2022-08-20T13:10:17.794Z,13.40
2022-08-20T13:12:44.571Z,17.58
2022-08-20T13:15:11.372Z,12.88
2022-08-20T13:17:39.624Z,10.25
2022-08-20T13:20:13.085Z,10.90
2022-08-20T13:22:41.558Z,15.02
2022-08-20T13:25:11.785Z,16.13
2022-08-20T13:27:40.554Z,11.77
2022-08-20T13:30:08.735Z,10.10
2022-08-20T13:32:35.403Z,13.70
2022-08-20T13:35:02.163Z,9.63
2022-08-20T13:37:29.252Z,7.35
2022-08-20T13:39:56.917Z,9.15
2022-08-20T13:42:27.344Z,10.07
2022-08-20T13:44:54.389Z,5.13
2022-08-20T13:47:34.034Z,5.97
2022-08-20T13:50:06.297Z,16.73
2022-08-20T13:52:33.238Z,4.07
2022-08-20T13:55:03.062Z,6.80
2022-08-20T13:57:33.149Z,5.05
2022-08-20T13:59:59.919Z,3.00
2022-08-20T14:02:26.734Z,4.10
2022-08-20T14:04:53.962Z,5.95
2022-08-20T14:07:22.026Z,3.22
2022-08-20T14:09:54.390Z,4.47
2022-08-20T14:12:23.058Z,5.10
2022-08-20T14:14:51.099Z,2.30
2022-08-20T14:17:31.211Z,3.60
2022-08-20T14:20:01.818Z,2.72
2022-08-20T14:22:30.571Z,3.70
2022-08-20T14:25:02.514Z,2.63
2022-08-20T14:27:31.473Z,3.35
2022-08-20T14:29:58.855Z,2.65
2022-08-20T14:32:26.394Z,2.42
2022-08-20T14:34:53.940Z,2.95
2022-08-20T14:37:27.595Z,4.88
2022-08-20T14:39:59.539Z,2.90
2022-08-20T14:42:28.253Z,3.08
2022-08-20T14:44:57.582Z,1.92
2022-08-20T14:47:29.501Z,2.30
2022-08-20T14:49:59.438Z,2.78
2022-08-20T14:52:46.083Z,3.05
2022-08-20T14:55:17.186Z,2.65
2022-08-20T14:57:47.249Z,2.35
2022-08-20T15:00:18.859Z,4.53
2022-08-20T15:02:45.974Z,2.88
2022-08-20T15:05:13.284Z,3.95
2022-08-20T15:07:43.643Z,4.32
2022-08-20T15:10:15.264Z,3.13
2022-08-20T15:12:47.776Z,3.97
2022-08-20T15:15:16.427Z,2.58
2022-08-20T15:17:48.258Z,3.55
2022-08-20T15:20:20.188Z,3.08
2022-08-20T15:22:48.426Z,4.53
2022-08-20T15:25:16.986Z,2.33
2022-08-20T15:27:45.022Z,4.20
2022-08-20T15:30:14.870Z,3.40
2022-08-20T15:32:41.594Z,3.72
2022-08-20T15:35:11.077Z,2.63
2022-08-20T15:37:43.739Z,6.18
2022-08-20T15:42:40.084Z,5.05
2022-08-20T15:45:08.929Z,3.85
2022-08-20T15:47:44.255Z,3.47
2022-08-20T15:50:20.374Z,2.05
2022-08-20T15:52:47.085Z,2.53
2022-08-20T16:25:07.640Z,3.55
2022-08-20T16:27:47.041Z,4.63
2022-08-20T16:30:27.781Z,6.65
2022-08-20T16:37:41.858Z,6.18
2022-08-20T16:40:21.885Z,6.45
2022-08-20T16:42:53.826Z,6.72
2022-08-20T16:45:27.579Z,4.35
2022-08-20T16:48:01.819Z,7.00
2022-08-20T16:53:44.564Z,5.90
2022-08-20T17:10:56.597Z,8.40
2022-08-20T17:13:31.315Z,5.80
2022-08-20T17:16:01.744Z,7.40
2022-08-20T17:18:35.171Z,6.45
2022-08-20T17:40:19.479Z,6.93
2022-08-20T17:47:45.856Z,8.30
2022-08-20T17:57:00.401Z,9.43
2022-08-20T18:02:14.971Z,7.72
2022-08-20T18:04:42.371Z,6.15
2022-08-20T18:07:31.662Z,7.63
2022-08-20T18:10:02.230Z,8.48
2022-08-20T18:12:37.113Z,8.77
2022-08-20T18:15:08.663Z,10.25
2022-08-20T18:17:43.421Z,7.63
2022-08-20T18:20:22.100Z,7.10
2022-08-20T18:22:55.801Z,5.45
2022-08-20T18:25:39.028Z,4.80
2022-08-20T18:28:16.127Z,6.22
2022-08-20T18:30:52.523Z,6.13
2022-08-20T18:33:34.679Z,9.40
2022-08-20T18:36:11.437Z,8.30
2022-08-20T18:38:42.063Z,6.00
2022-08-20T18:41:15.536Z,12.25
2022-08-20T18:43:42.759Z,7.80
2022-08-20T18:46:20.967Z,8.00
2022-08-20T18:48:57.916Z,7.15
2022-08-20T18:51:30.240Z,6.60
2022-08-20T18:53:57.017Z,8.57
2022-08-20T18:56:38.262Z,6.72
2022-08-20T18:59:18.780Z,9.40
2022-08-20T19:01:47.898Z,6.47
2022-08-20T19:04:22.302Z,9.50
2022-08-20T19:06:56.917Z,7.78
2022-08-20T19:09:29.907Z,7.13
2022-08-20T19:12:11.974Z,8.35
2022-08-20T19:15:00.880Z,4.83
2022-08-20T19:17:52.188Z,9.98
2022-08-20T19:20:25.541Z,7.70
2022-08-20T19:22:54.275Z,6.75
2022-08-20T19:25:32.804Z,5.90
2022-08-20T19:28:03.713Z,6.28
2022-08-20T19:30:40.434Z,7.95
2022-08-20T19:33:08.126Z,9.13
2022-08-20T19:35:35.813Z,7.30
2022-08-20T19:38:03.351Z,5.85
2022-08-20T19:40:35.153Z,7.10
2022-08-20T19:43:12.464Z,11.23
2022-08-20T19:45:44.057Z,6.53
2022-08-20T19:48:27.688Z,7.85
2022-08-20T19:51:06.642Z,6.18
2022-08-20T19:53:35.430Z,7.25
2022-08-20T19:56:06.438Z,8.60
2022-08-20T19:58:35.413Z,8.23
2022-08-20T20:01:04.063Z,6.60
2022-08-20T20:03:33.449Z,6.28
2022-08-20T20:06:16.663Z,9.25
2022-08-20T20:08:58.872Z,6.63
2022-08-20T20:11:30.881Z,9.82
2022-08-20T20:14:09.165Z,8.05
2022-08-20T20:16:36.921Z,7.95
2022-08-20T20:19:25.694Z,8.85
2022-08-20T20:22:05.294Z,12.52
2022-08-20T20:24:46.696Z,5.15
2022-08-20T20:27:22.380Z,6.03
2022-08-20T20:29:49.369Z,7.45
2022-08-20T20:32:21.684Z,9.48
2022-08-20T20:35:00.221Z,6.22
2022-08-20T20:37:49.104Z,6.43
2022-08-20T20:40:27.091Z,7.45
2022-08-20T20:43:03.722Z,7.00
2022-08-20T20:45:46.903Z,8.40
2022-08-20T20:48:27.162Z,7.68
2022-08-20T20:50:59.627Z,7.50
2022-08-20T20:53:51.108Z,8.75
2022-08-20T20:56:38.016Z,8.05
2022-08-20T20:59:07.172Z,11.25
2022-08-20T21:01:45.535Z,10.63
2022-08-20T21:06:44.833Z,10.55
2022-08-20T21:09:12.088Z,7.38
2022-08-20T21:11:38.958Z,8.55
2022-08-20T21:14:05.715Z,9.50
2022-08-20T21:16:32.410Z,8.55
2022-08-20T21:18:59.085Z,7.88
2022-08-20T21:21:25.772Z,9.75
2022-08-20T21:23:52.470Z,6.78
2022-08-20T21:26:19.190Z,6.78
2022-08-20T21:28:45.884Z,7.78
2022-08-20T21:31:13.256Z,7.28
2022-08-20T21:33:39.955Z,9.18
2022-08-20T21:36:06.932Z,10.75
2022-08-20T21:38:33.638Z,12.70
2022-08-20T21:41:00.461Z,8.48
2022-08-20T21:43:29.352Z,12.02
2022-08-20T21:46:01.312Z,14.35
2022-08-20T21:48:28.977Z,10.23
2022-08-20T21:50:55.660Z,8.30
2022-08-20T21:53:22.904Z,8.07
2022-08-20T21:55:49.682Z,10.13
2022-08-20T21:58:16.547Z,10.25
2022-08-20T22:00:48.933Z,6.95
2022-08-20T22:03:16.868Z,10.93
2022-08-20T22:05:47.218Z,8.68
2022-08-20T22:08:14.002Z,9.50
2022-08-20T22:10:40.885Z,11.48
2022-08-20T22:13:07.779Z,14.63
2022-08-20T22:15:34.499Z,10.63
2022-08-20T22:18:01.223Z,8.93
2022-08-20T22:20:28.761Z,10.40
2022-08-20T22:22:55.730Z,10.40
2022-08-20T22:25:23.282Z,11.40
2022-08-20T22:27:50.129Z,8.52
2022-08-20T22:30:17.026Z,7.60
2022-08-20T22:32:51.440Z,7.70
2022-08-20T22:35:19.568Z,9.98
2022-08-20T22:37:46.356Z,8.43
2022-08-20T22:40:13.270Z,8.80
2022-08-20T22:42:39.992Z,8.35
2022-08-20T22:45:14.577Z,9.85
2022-08-20T22:47:42.381Z,6.80
2022-08-20T22:50:10.904Z,7.20
2022-08-20T22:52:38.944Z,8.75
2022-08-20T22:55:06.216Z,6.68
2022-08-20T22:57:34.305Z,9.98
2022-08-20T23:00:01.359Z,7.25
2022-08-20T23:02:28.154Z,7.05
2022-08-20T23:04:54.877Z,6.72
2022-08-20T23:07:21.674Z,12.23
2022-08-20T23:09:48.589Z,8.48
2022-08-20T23:12:15.316Z,8.05
2022-08-20T23:14:42.041Z,8.35
2022-08-20T23:17:13.603Z,7.28
2022-08-20T23:19:41.639Z,9.23
2022-08-20T23:22:08.557Z,7.55
2022-08-20T23:24:36.114Z,7.70
2022-08-20T23:27:04.740Z,9.30
2022-08-20T23:29:31.886Z,8.80
2022-08-20T23:31:58.854Z,8.10
2022-08-20T23:34:26.559Z,8.98
2022-08-20T23:36:54.253Z,9.60
2022-08-20T23:39:21.227Z,8.05
2022-08-20T23:41:48.306Z,8.27
2022-08-20T23:44:25.990Z,8.20
2022-08-20T23:46:57.608Z,8.00
2022-08-20T23:49:24.848Z,9.75
2022-08-20T23:51:51.645Z,10.95
2022-08-20T23:54:18.367Z,9.93
2022-08-20T23:56:45.074Z,8.43
2022-08-20T23:59:11.837Z,7.82
